Time;durP1;ratioP1;P1;durP2;ratioP2;P2;SDS_P1;SDS_P2;PMS_P1;PMS_P2;Temp;Humidity;BMP_temperature;BMP_pressure;BME280_temperature;BME280_humidity;BME280_pressure;Samples;Min_cycle;Max_cycle;Signal;HPM_P1;HPM_P2
2023/08/16 00:02:24;;;;;;;12.63;11.33;;;18.20;99.90;;;;;;5094418;28;20483;-61
2023/08/16 00:04:50;;;;;;;14.00;12.30;;;18.20;99.90;;;;;;5093739;28;20814;-61
2023/08/16 00:07:17;;;;;;;13.90;11.87;;;18.30;99.90;;;;;;5093918;28;20440;-61
2023/08/16 00:09:44;;;;;;;13.03;11.60;;;18.30;99.90;;;;;;5094135;28;20441;-61
2023/08/16 00:12:12;;;;;;;13.40;12.00;;;18.30;99.90;;;;;;5093737;28;20890;-61
2023/08/16 00:14:39;;;;;;;14.80;12.53;;;18.40;99.90;;;;;;5094230;28;20442;-62
2023/08/16 00:17:05;;;;;;;19.73;13.17;;;18.40;99.90;;;;;;5094036;28;21002;-61
2023/08/16 00:19:32;;;;;;;13.93;12.43;;;18.40;99.90;;;;;;5093747;28;20520;-61
2023/08/16 00:21:59;;;;;;;14.20;11.63;;;18.40;99.90;;;;;;5093646;28;20451;-62
2023/08/16 00:24:26;;;;;;;14.77;12.90;;;18.40;99.90;;;;;;5093680;28;20452;-61
2023/08/16 00:26:52;;;;;;;13.97;10.90;;;18.50;99.90;;;;;;5093893;28;20434;-61
2023/08/16 00:29:20;;;;;;;14.57;13.03;;;18.50;99.90;;;;;;5097497;28;20806;-62
2023/08/16 00:31:47;;;;;;;15.87;12.60;;;18.50;99.90;;;;;;5097561;28;20473;-61
2023/08/16 00:34:14;;;;;;;14.00;12.57;;;18.50;99.90;;;;;;5097812;28;20470;-61
2023/08/16 00:36:40;;;;;;;14.47;12.40;;;18.50;99.90;;;;;;5098310;28;20478;-61
2023/08/16 00:39:07;;;;;;;13.90;12.50;;;18.50;99.90;;;;;;5097774;28;20429;-60
2023/08/16 00:41:34;;;;;;;14.00;11.53;;;18.50;99.90;;;;;;5097544;28;20444;-62
2023/08/16 00:44:01;;;;;;;12.57;11.20;;;18.50;99.90;;;;;;5097333;28;20472;-61
2023/08/16 00:46:30;;;;;;;14.90;11.10;;;18.50;99.90;;;;;;5097240;28;20430;-61
2023/08/16 00:48:57;;;;;;;14.10;12.60;;;18.40;99.90;;;;;;5096744;28;20442;-61
2023/08/16 00:51:23;;;;;;;15.00;12.20;;;18.40;99.90;;;;;;5097070;28;20441;-61
2023/08/16 00:53:51;;;;;;;13.37;11.97;;;18.40;99.90;;;;;;5098536;28;20461;-61
2023/08/16 00:56:18;;;;;;;14.43;11.97;;;18.40;99.90;;;;;;5097472;28;20456;-60
2023/08/16 00:58:45;;;;;;;12.37;11.17;;;18.30;99.90;;;;;;5097208;28;20461;-62
2023/08/16 01:01:11;;;;;;;15.20;11.90;;;18.30;99.90;;;;;;5096968;28;20441;-62
2023/08/16 01:03:40;;;;;;;11.47;10.37;;;18.30;99.90;;;;;;5096972;28;20844;-62
2023/08/16 01:06:07;;;;;;;13.97;12.10;;;18.30;99.90;;;;;;5097029;28;20441;-60
2023/08/16 01:08:34;;;;;;;13.00;10.77;;;18.30;99.90;;;;;;5096706;28;20431;-61
2023/08/16 01:11:07;;;;;;;14.60;10.83;;;18.30;99.90;;;;;;5096564;28;21080;-61
2023/08/16 01:13:42;;;;;;;15.50;10.83;;;18.30;99.90;;;;;;5096920;28;20863;-61
2023/08/16 01:16:11;;;;;;;12.23;10.97;;;18.30;99.90;;;;;;5096277;28;20434;-61
2023/08/16 01:18:40;;;;;;;14.30;10.47;;;18.20;99.90;;;;;;5096461;28;20490;-61
2023/08/16 01:21:09;;;;;;;12.93;11.20;;;18.20;99.90;;;;;;5096353;28;20484;-61
2023/08/16 01:23:44;;;;;;;12.70;9.93;;;18.20;99.90;;;;;;5096683;28;20883;-61
2023/08/16 01:26:24;;;;;;;16.23;9.83;;;18.20;99.90;;;;;;5096159;28;20447;-61
2023/08/16 01:28:52;;;;;;;10.10;9.10;;;18.10;99.90;;;;;;5096238;28;20426;-61
2023/08/16 01:31:19;;;;;;;12.30;9.60;;;18.10;99.90;;;;;;5096137;28;20556;-61
2023/08/16 01:33:46;;;;;;;11.43;9.20;;;18.10;99.90;;;;;;5095908;28;20871;-62
2023/08/16 01:36:13;;;;;;;10.17;9.20;;;18.10;99.90;;;;;;5096037;28;20435;-62
2023/08/16 01:38:40;;;;;;;14.33;11.93;;;18.00;99.90;;;;;;5094740;28;20483;-62
2023/08/16 01:41:11;;;;;;;10.53;9.43;;;18.00;99.90;;;;;;5095884;28;20448;-61
2023/08/16 01:43:42;;;;;;;10.40;9.23;;;18.00;99.90;;;;;;5095463;28;20984;-62
2023/08/16 01:46:10;;;;;;;9.50;8.50;;;18.00;99.90;;;;;;5095655;28;20805;-61
2023/08/16 01:48:38;;;;;;;9.60;8.60;;;17.90;99.90;;;;;;5095818;28;20448;-61
2023/08/16 01:51:05;;;;;;;10.50;8.17;;;18.00;99.90;;;;;;5095825;28;20501;-62
2023/08/16 01:53:34;;;;;;;9.40;8.50;;;17.90;99.90;;;;;;5095499;28;20482;-62
2023/08/16 01:56:01;;;;;;;10.03;9.03;;;17.90;99.90;;;;;;5095817;28;20439;-61
2023/08/16 01:58:28;;;;;;;9.70;8.30;;;17.90;99.90;;;;;;5095671;28;20475;-62
2023/08/16 02:00:56;;;;;;;9.60;8.70;;;17.90;99.90;;;;;;5095738;28;20440;-61
2023/08/16 02:03:23;;;;;;;8.50;7.70;;;17.80;99.90;;;;;;5095174;28;20456;-61
2023/08/16 02:05:49;;;;;;;10.00;8.97;;;17.80;99.90;;;;;;5095447;28;20449;-61
2023/08/16 02:08:16;;;;;;;10.57;8.53;;;17.80;99.90;;;;;;5095350;28;20444;-61
2023/08/16 02:10:43;;;;;;;11.20;7.97;;;17.80;99.90;;;;;;5095280;28;20803;-60
2023/08/16 02:13:09;;;;;;;9.30;8.27;;;17.80;99.90;;;;;;5094824;28;20999;-61
2023/08/16 02:15:37;;;;;;;8.50;7.60;;;17.70;99.90;;;;;;5095318;28;20435;-61
2023/08/16 02:18:10;;;;;;;10.40;8.47;;;17.70;99.90;;;;;;5095015;28;20481;-61
2023/08/16 02:20:38;;;;;;;8.23;7.43;;;17.80;99.90;;;;;;5095011;28;20470;-61
2023/08/16 02:23:05;;;;;;;9.67;7.70;;;17.70;99.90;;;;;;5094989;28;20505;-61
2023/08/16 02:25:32;;;;;;;8.30;7.27;;;17.70;99.90;;;;;;5095155;28;20444;-61
2023/08/16 02:27:58;;;;;;;8.80;7.90;;;17.70;99.90;;;;;;5095092;28;20531;-61
2023/08/16 02:30:25;;;;;;;10.03;8.60;;;17.60;99.90;;;;;;5094896;28;20444;-61
2023/08/16 02:32:53;;;;;;;9.27;7.70;;;17.60;99.90;;;;;;5094581;28;20468;-61
2023/08/16 02:35:22;;;;;;;9.23;8.00;;;17.60;99.90;;;;;;5094428;28;20447;-61
2023/08/16 02:37:49;;;;;;;10.90;8.30;;;17.50;99.90;;;;;;5094536;28;20488;-61
2023/08/16 02:40:15;;;;;;;8.97;8.13;;;17.50;99.90;;;;;;5094413;28;20566;-60
2023/08/16 02:42:42;;;;;;;9.87;8.97;;;17.50;99.90;;;;;;5094344;28;20478;-61
2023/08/16 02:45:10;;;;;;;9.67;8.67;;;17.40;99.90;;;;;;5094935;28;20443;-61
2023/08/16 02:47:36;;;;;;;8.03;7.27;;;17.40;99.90;;;;;;5094442;28;20440;-61
2023/08/16 02:50:04;;;;;;;8.37;6.50;;;17.40;99.90;;;;;;5094095;28;20444;-62
2023/08/16 02:52:32;;;;;;;7.80;7.00;;;17.40;99.90;;;;;;5093526;28;20468;-63
2023/08/16 02:54:58;;;;;;;9.23;7.37;;;17.40;99.90;;;;;;5094415;28;20447;-61
2023/08/16 02:57:25;;;;;;;8.87;6.60;;;17.40;99.90;;;;;;5094181;28;20486;-61
2023/08/16 02:59:52;;;;;;;7.93;6.30;;;17.30;99.90;;;;;;5094406;28;20463;-61
2023/08/16 03:02:19;;;;;;;7.80;6.30;;;17.30;99.90;;;;;;5094162;28;20537;-61
2023/08/16 03:04:46;;;;;;;9.70;6.80;;;17.30;99.90;;;;;;5094152;28;20440;-59
2023/08/16 03:07:13;;;;;;;10.20;6.90;;;17.30;99.90;;;;;;5094078;28;20452;-60
2023/08/16 03:09:41;;;;;;;6.90;6.20;;;17.20;99.90;;;;;;5094280;28;20436;-61
2023/08/16 03:12:08;;;;;;;10.20;6.67;;;17.20;99.90;;;;;;5094343;28;20448;-60
2023/08/16 03:14:35;;;;;;;6.90;6.20;;;17.20;99.90;;;;;;5093871;28;20450;-62
2023/08/16 03:17:02;;;;;;;6.43;5.83;;;17.10;99.90;;;;;;5094090;28;20443;-61
2023/08/16 03:19:28;;;;;;;6.70;5.70;;;17.10;99.90;;;;;;5093920;28;20445;-61
2023/08/16 03:21:55;;;;;;;6.53;5.80;;;17.10;99.90;;;;;;5093860;28;20449;-61
2023/08/16 03:24:23;;;;;;;6.50;5.90;;;17.00;99.90;;;;;;5094011;28;20475;-61
2023/08/16 03:26:52;;;;;;;8.93;6.43;;;17.00;99.90;;;;;;5093517;28;20436;-61
2023/08/16 03:29:19;;;;;;;9.13;5.87;;;17.00;99.90;;;;;;5093828;28;20493;-62
2023/08/16 03:31:46;;;;;;;8.07;6.20;;;17.00;99.90;;;;;;5093942;28;20448;-61
2023/08/16 03:34:13;;;;;;;10.80;5.50;;;17.00;99.90;;;;;;5093670;28;20487;-62
2023/08/16 03:36:40;;;;;;;7.53;5.43;;;17.00;99.90;;;;;;5093659;28;20489;-62
2023/08/16 03:39:07;;;;;;;7.17;5.00;;;17.00;99.90;;;;;;5093193;28;20984;-62
2023/08/16 03:41:34;;;;;;;6.50;4.83;;;17.00;99.90;;;;;;5093906;28;20439;-62
2023/08/16 03:44:03;;;;;;;5.50;5.10;;;17.00;99.90;;;;;;5093447;28;20473;-62
2023/08/16 03:46:30;;;;;;;7.10;4.70;;;17.00;99.90;;;;;;5093553;28;20457;-62
2023/08/16 03:48:56;;;;;;;5.73;4.87;;;17.00;99.90;;;;;;5093489;28;20440;-61
2023/08/16 03:51:23;;;;;;;6.20;5.20;;;17.00;99.90;;;;;;5093148;28;20448;-61
2023/08/16 03:53:50;;;;;;;6.30;4.23;;;17.00;99.90;;;;;;5093356;28;20459;-61
2023/08/16 03:56:17;;;;;;;5.83;5.10;;;17.00;99.90;;;;;;5093133;28;20443;-61
2023/08/16 03:58:44;;;;;;;6.93;4.40;;;17.00;99.90;;;;;;5092806;28;20474;-61
2023/08/16 04:01:12;;;;;;;6.97;4.33;;;17.00;99.90;;;;;;5092898;28;20430;-61
2023/08/16 04:03:39;;;;;;;6.37;4.00;;;17.00;99.90;;;;;;5092584;28;20997;-61
2023/08/16 04:06:10;;;;;;;4.33;3.80;;;17.00;99.90;;;;;;5093450;28;20820;-61
2023/08/16 04:12:06;;;;;;;5.93;4.23;;;17.00;99.90;;;;;;5131783;27;20601;-60
2023/08/16 04:14:32;;;;;;;7.70;5.07;;;17.00;99.90;;;;;;5131294;27;20458;-62
2023/08/16 04:16:59;;;;;;;7.60;4.50;;;17.00;99.90;;;;;;5132031;27;20444;-61
2023/08/16 04:19:26;;;;;;;5.10;4.60;;;17.00;99.90;;;;;;5132000;27;20522;-62
2023/08/16 04:21:52;;;;;;;5.33;3.90;;;17.00;99.90;;;;;;5131884;27;20436;-61
2023/08/16 04:24:19;;;;;;;10.20;3.73;;;17.10;99.90;;;;;;5131545;27;20808;-61
2023/08/16 04:26:46;;;;;;;7.17;4.20;;;17.10;99.90;;;;;;5131227;27;20994;-61
2023/08/16 04:29:14;;;;;;;5.10;4.10;;;17.10;99.90;;;;;;5131862;27;20439;-61
2023/08/16 04:31:41;;;;;;;7.63;4.40;;;17.10;99.90;;;;;;5131292;27;20472;-61
2023/08/16 04:34:08;;;;;;;5.30;3.40;;;17.20;99.90;;;;;;5131617;27;20466;-60
2023/08/16 04:36:34;;;;;;;4.70;4.10;;;17.20;99.90;;;;;;5131520;27;20437;-61
2023/08/16 04:39:01;;;;;;;6.07;3.83;;;17.20;99.90;;;;;;5131883;27;20445;-62
2023/08/16 04:41:28;;;;;;;4.83;4.23;;;17.20;99.90;;;;;;5132523;27;20439;-60
2023/08/16 04:43:55;;;;;;;8.67;4.57;;;17.30;99.90;;;;;;5119862;22;20493;-63
2023/08/16 04:46:23;;;;;;;4.70;3.93;;;17.30;99.90;;;;;;5090053;28;20746;-63
2023/08/16 04:48:50;;;;;;;7.40;4.90;;;17.40;99.90;;;;;;5090200;28;20436;-63
2023/08/16 04:51:17;;;;;;;9.37;3.90;;;17.50;99.90;;;;;;5090152;28;20474;-63
2023/08/16 04:53:45;;;;;;;9.10;3.80;;;17.50;99.90;;;;;;5089683;28;21036;-63
2023/08/16 04:56:12;;;;;;;4.83;3.50;;;17.50;99.90;;;;;;5089593;28;20963;-63
2023/08/16 04:58:39;;;;;;;7.40;3.60;;;17.60;99.90;;;;;;5089945;28;20441;-63
2023/08/16 05:01:05;;;;;;;14.30;3.67;;;17.60;99.90;;;;;;5089594;28;20963;-63
2023/08/16 05:03:34;;;;;;;5.30;3.67;;;17.60;99.90;;;;;;5090334;28;20459;-63
2023/08/16 05:06:03;;;;;;;9.67;4.30;;;17.70;99.90;;;;;;5089656;28;20447;-63
2023/08/16 05:08:30;;;;;;;4.47;3.27;;;17.70;99.90;;;;;;5090455;28;20951;-63
2023/08/16 05:10:57;;;;;;;5.07;3.93;;;17.70;99.90;;;;;;5090478;28;20482;-63
2023/08/16 05:13:24;;;;;;;4.50;3.90;;;17.80;99.90;;;;;;5090740;28;20886;-63
2023/08/16 05:15:51;;;;;;;6.93;3.93;;;17.80;99.90;;;;;;5091253;28;20442;-61
2023/08/16 05:18:18;;;;;;;6.50;3.50;;;17.90;99.90;;;;;;5091694;28;20440;-62
2023/08/16 05:20:46;;;;;;;4.70;3.80;;;18.10;99.90;;;;;;5090587;28;20928;-62
2023/08/16 05:23:13;;;;;;;6.77;3.03;;;18.30;99.90;;;;;;5077414;28;20977;-61
2023/08/16 05:25:39;;;;;;;4.00;3.00;;;18.50;99.90;;;;;;5076597;28;20452;-60
2023/08/16 05:28:06;;;;;;;5.23;3.23;;;18.60;99.90;;;;;;5076215;28;20446;-60
2023/08/16 05:30:33;;;;;;;5.10;2.93;;;18.70;99.90;;;;;;5076549;28;20478;-62
2023/08/16 05:33:00;;;;;;;3.63;3.33;;;18.90;99.90;;;;;;5076294;28;20471;-60
2023/08/16 05:35:26;;;;;;;3.03;2.70;;;18.90;99.90;;;;;;5076152;28;20449;-59
2023/08/16 05:37:55;;;;;;;4.30;3.30;;;18.90;99.90;;;;;;5076024;28;21010;-61
2023/08/16 05:40:22;;;;;;;4.47;2.57;;;18.90;99.90;;;;;;5076475;28;20439;-61
2023/08/16 05:42:49;;;;;;;5.80;2.53;;;18.90;99.90;;;;;;5075908;28;20584;-62
2023/08/16 05:45:16;;;;;;;4.57;2.90;;;18.80;99.90;;;;;;5076114;28;20426;-60
2023/08/16 05:47:43;;;;;;;6.00;2.80;;;18.80;99.90;;;;;;5075204;28;20490;-60
2023/08/16 05:50:10;;;;;;;4.17;2.80;;;18.80;99.90;;;;;;5075272;28;20445;-60
2023/08/16 05:52:37;;;;;;;5.30;3.10;;;18.80;99.90;;;;;;5074919;28;20828;-61
2023/08/16 05:55:06;;;;;;;4.53;2.83;;;18.80;99.90;;;;;;5075246;28;20457;-60
2023/08/16 05:57:33;;;;;;;7.40;3.20;;;18.80;99.90;;;;;;5075368;28;20442;-62
2023/08/16 05:59:59;;;;;;;4.67;2.80;;;18.80;99.90;;;;;;5074794;28;20936;-59
2023/08/16 06:02:26;;;;;;;6.67;3.13;;;18.80;99.90;;;;;;5075322;28;20461;-61
2023/08/16 06:04:53;;;;;;;4.47;2.90;;;19.00;99.90;;;;;;5075000;28;20445;-61
2023/08/16 06:07:20;;;;;;;4.90;3.00;;;19.10;99.90;;;;;;5075330;28;20449;-60
2023/08/16 06:09:47;;;;;;;4.30;2.70;;;19.20;99.90;;;;;;5075953;28;20452;-59
2023/08/16 06:12:15;;;;;;;4.50;2.80;;;19.30;99.90;;;;;;5075497;28;20492;-61
2023/08/16 06:14:42;;;;;;;8.07;2.83;;;19.30;99.90;;;;;;5075425;28;20442;-62
2023/08/16 06:17:09;;;;;;;2.67;2.40;;;19.30;99.90;;;;;;5075942;28;20446;-59
2023/08/16 06:19:36;;;;;;;2.13;1.90;;;19.40;99.90;;;;;;5075033;28;20449;-63
2023/08/16 06:22:03;;;;;;;3.97;2.57;;;19.40;99.90;;;;;;5074578;28;20959;-63
2023/08/16 06:24:36;;;;;;;4.77;2.93;;;19.40;99.90;;;;;;5075161;28;20494;-64
2023/08/16 06:27:02;;;;;;;3.20;2.57;;;19.50;99.90;;;;;;5075506;28;20970;-64
2023/08/16 06:29:31;;;;;;;4.43;3.00;;;19.60;99.90;;;;;;5074998;28;20497;-65
2023/08/16 06:31:59;;;;;;;2.40;1.93;;;19.70;99.90;;;;;;5074265;28;20996;-65
2023/08/16 06:34:26;;;;;;;5.30;2.37;;;19.80;99.90;;;;;;5073899;28;20552;-65
2023/08/16 06:36:53;;;;;;;2.90;2.00;;;19.80;99.90;;;;;;5074803;28;21037;-64
2023/08/16 06:39:20;;;;;;;5.73;2.00;;;19.90;99.90;;;;;;5074634;28;20935;-64
2023/08/16 06:41:47;;;;;;;6.47;2.30;;;20.00;99.90;;;;;;5074989;28;20439;-63
2023/08/16 06:44:13;;;;;;;6.13;2.10;;;20.10;99.90;;;;;;5074993;28;20471;-64
2023/08/16 06:46:42;;;;;;;5.13;2.80;;;20.20;99.90;;;;;;5075063;28;20439;-64
2023/08/16 06:49:09;;;;;;;2.57;2.07;;;20.20;99.90;;;;;;5074345;28;20436;-62
2023/08/16 06:51:36;;;;;;;3.30;2.00;;;20.30;99.90;;;;;;5074833;28;20479;-63
2023/08/16 06:54:03;;;;;;;4.37;2.17;;;20.30;99.90;;;;;;5075413;28;20459;-65
2023/08/16 06:56:30;;;;;;;3.20;2.23;;;20.20;99.90;;;;;;5075134;28;20446;-65
2023/08/16 06:58:56;;;;;;;3.57;2.37;;;20.20;99.90;;;;;;5075480;28;20840;-63
2023/08/16 07:01:23;;;;;;;3.63;1.70;;;20.20;99.90;;;;;;5074621;28;20443;-64
2023/08/16 07:03:51;;;;;;;2.53;1.70;;;20.20;99.90;;;;;;5075188;28;20493;-65
2023/08/16 07:06:19;;;;;;;2.60;1.90;;;20.20;99.90;;;;;;5075444;28;20446;-64
2023/08/16 07:08:46;;;;;;;3.47;2.00;;;20.30;99.90;;;;;;5074291;28;20478;-64
2023/08/16 07:11:12;;;;;;;5.13;2.70;;;20.40;99.90;;;;;;5075180;28;20527;-63
2023/08/16 07:13:39;;;;;;;4.07;1.80;;;20.40;99.90;;;;;;5075565;28;20489;-63
2023/08/16 07:16:06;;;;;;;3.90;2.00;;;20.50;99.90;;;;;;5075192;28;20810;-65
2023/08/16 07:18:33;;;;;;;4.03;2.40;;;20.60;99.90;;;;;;5075149;28;20442;-63
2023/08/16 07:21:01;;;;;;;12.20;2.90;;;20.70;99.90;;;;;;5074909;28;20940;-63
2023/08/16 07:23:28;;;;;;;3.70;2.90;;;20.90;99.90;;;;;;5074903;28;20538;-64
2023/08/16 07:25:57;;;;;;;3.80;2.23;;;21.10;99.90;;;;;;5074974;28;20948;-64
2023/08/16 07:28:24;;;;;;;4.73;2.43;;;21.20;99.90;;;;;;5074716;28;20439;-63
2023/08/16 07:30:53;;;;;;;2.70;2.10;;;21.10;99.50;;;;;;5075183;28;20439;-63
2023/08/16 07:33:20;;;;;;;5.30;2.57;;;21.10;99.60;;;;;;5074734;28;20984;-63
2023/08/16 07:35:47;;;;;;;4.63;2.97;;;21.10;99.50;;;;;;5074297;28;20549;-64
2023/08/16 07:38:15;;;;;;;3.87;2.70;;;21.20;99.50;;;;;;5075116;28;20506;-64
2023/08/16 07:40:47;;;;;;;6.03;3.10;;;21.20;99.60;;;;;;5074170;28;20526;-63
2023/08/16 07:43:14;;;;;;;4.97;2.50;;;21.20;99.80;;;;;;5074362;28;20482;-64
2023/08/16 07:45:40;;;;;;;2.97;2.30;;;21.20;99.90;;;;;;5075420;28;20439;-65
2023/08/16 07:48:07;;;;;;;4.80;3.20;;;21.20;99.90;;;;;;5074961;28;20439;-64
2023/08/16 07:50:34;;;;;;;5.20;2.73;;;21.30;99.90;;;;;;5074457;28;20474;-63
2023/08/16 07:53:01;;;;;;;6.43;2.27;;;21.30;99.90;;;;;;5073616;28;20482;-64
2023/08/16 07:55:33;;;;;;;4.60;2.30;;;21.30;99.50;;;;;;5073559;28;20447;-62
2023/08/16 07:58:00;;;;;;;5.33;2.03;;;21.20;99.20;;;;;;5073189;28;20435;-64
2023/08/16 08:00:27;;;;;;;5.93;2.60;;;21.20;99.20;;;;;;5073730;28;20561;-62
2023/08/16 08:02:54;;;;;;;2.27;2.03;;;21.30;99.10;;;;;;5073526;28;20835;-63
2023/08/16 08:05:22;;;;;;;3.30;2.07;;;21.60;98.50;;;;;;5073145;28;20936;-64
2023/08/16 08:07:49;;;;;;;3.37;1.90;;;21.80;97.50;;;;;;5073330;28;20443;-63
2023/08/16 08:10:16;;;;;;;3.93;1.70;;;21.90;96.20;;;;;;5073557;28;20540;-64
2023/08/16 08:12:45;;;;;;;8.20;2.00;;;21.70;95.20;;;;;;5074032;28;20493;-62
2023/08/16 08:15:13;;;;;;;2.00;1.77;;;21.60;95.40;;;;;;5074056;28;20443;-63
2023/08/16 08:17:40;;;;;;;5.17;1.83;;;21.50;95.50;;;;;;5074218;28;20526;-63
2023/08/16 08:20:09;;;;;;;6.47;2.07;;;21.40;95.90;;;;;;5073991;28;20502;-63
2023/08/16 08:22:36;;;;;;;6.90;1.83;;;21.30;96.50;;;;;;5074111;28;20906;-62
2023/08/16 08:25:04;;;;;;;3.90;2.07;;;21.30;96.80;;;;;;5074211;28;20850;-63
2023/08/16 08:27:31;;;;;;;4.73;2.00;;;21.40;96.90;;;;;;5075259;28;20443;-64
2023/08/16 08:29:59;;;;;;;2.80;1.77;;;21.60;96.90;;;;;;5074452;28;20813;-63
2023/08/16 08:32:26;;;;;;;3.33;1.90;;;21.70;96.30;;;;;;5073775;28;20537;-64
2023/08/16 08:34:53;;;;;;;3.07;1.80;;;21.90;96.00;;;;;;5074215;28;20451;-64
2023/08/16 08:37:20;;;;;;;6.30;2.40;;;22.10;95.30;;;;;;5073845;28;20830;-64
2023/08/16 08:39:47;;;;;;;4.37;2.13;;;22.20;94.90;;;;;;5073840;28;20513;-61
2023/08/16 08:42:15;;;;;;;4.60;2.33;;;22.20;94.70;;;;;;5073746;28;20813;-63
2023/08/16 08:44:43;;;;;;;2.90;2.13;;;22.30;94.40;;;;;;5073122;28;20512;-63
2023/08/16 08:47:12;;;;;;;4.57;2.30;;;22.40;94.20;;;;;;5074066;28;20443;-64
2023/08/16 08:49:40;;;;;;;4.93;2.03;;;22.60;93.90;;;;;;5073610;28;20439;-62
2023/08/16 08:52:07;;;;;;;6.00;2.07;;;22.90;93.30;;;;;;5073621;28;20479;-63
2023/08/16 08:54:34;;;;;;;4.73;3.33;;;23.20;92.50;;;;;;5073530;28;20463;-64
2023/08/16 08:57:01;;;;;;;3.17;1.80;;;23.50;91.60;;;;;;5073810;28;20942;-63
2023/08/16 08:59:29;;;;;;;7.07;2.70;;;23.90;90.40;;;;;;5077058;28;20449;-63
2023/08/16 09:01:58;;;;;;;5.17;2.10;;;24.20;88.50;;;;;;5077607;28;20517;-63
2023/08/16 09:04:26;;;;;;;3.43;2.13;;;24.40;86.30;;;;;;5077433;28;20459;-63
2023/08/16 09:06:55;;;;;;;2.43;1.93;;;24.70;84.60;;;;;;5077794;28;20500;-63
2023/08/16 09:09:22;;;;;;;6.40;2.23;;;24.90;81.80;;;;;;5077336;28;20532;-63
2023/08/16 09:11:49;;;;;;;2.83;1.70;;;25.00;80.10;;;;;;5076734;28;20557;-62
2023/08/16 09:14:16;;;;;;;1.90;1.70;;;25.10;79.10;;;;;;5076148;28;21014;-62
2023/08/16 09:16:43;;;;;;;5.73;2.20;;;25.10;78.10;;;;;;5076702;28;20944;-61
2023/08/16 09:19:14;;;;;;;1.70;1.60;;;25.30;78.00;;;;;;5077281;28;20438;-62
2023/08/16 09:21:43;;;;;;;2.90;2.13;;;25.40;75.80;;;;;;5076774;28;20485;-62
2023/08/16 09:24:10;;;;;;;5.00;1.90;;;25.30;75.00;;;;;;5076131;28;20459;-62
2023/08/16 09:26:38;;;;;;;3.03;1.93;;;25.30;75.10;;;;;;5076816;28;20447;-61
2023/08/16 09:29:06;;;;;;;4.03;1.90;;;25.30;74.30;;;;;;5076535;28;20446;-59
2023/08/16 09:31:39;;;;;;;3.80;2.30;;;25.20;73.50;;;;;;5076220;28;20550;-62
2023/08/16 09:34:06;;;;;;;3.30;2.83;;;24.90;73.60;;;;;;5075750;28;20994;-61
2023/08/16 09:36:34;;;;;;;2.60;1.70;;;24.60;74.40;;;;;;5076211;28;20447;-63
2023/08/16 09:39:04;;;;;;;3.07;1.73;;;24.50;75.70;;;;;;5076897;28;20465;-62
2023/08/16 09:41:31;;;;;;;3.00;1.93;;;24.60;75.00;;;;;;5075619;28;20471;-63
2023/08/16 09:44:05;;;;;;;4.30;1.90;;;24.60;75.00;;;;;;5075634;28;20467;-62
2023/08/16 09:46:33;;;;;;;2.83;2.30;;;24.70;75.20;;;;;;5076680;28;20442;-61
2023/08/16 09:49:04;;;;;;;2.23;1.53;;;24.80;75.00;;;;;;5075123;28;20807;-62
2023/08/16 09:51:33;;;;;;;2.73;1.90;;;24.80;75.00;;;;;;5076696;28;20420;-63
2023/08/16 09:54:01;;;;;;;3.00;2.20;;;24.80;75.20;;;;;;5075594;28;21029;-62
2023/08/16 09:56:33;;;;;;;3.10;2.10;;;24.90;74.90;;;;;;5075741;28;20447;-63
2023/08/16 09:59:01;;;;;;;2.90;2.13;;;25.00;74.60;;;;;;5076440;28;20420;-63
2023/08/16 10:01:28;;;;;;;6.30;2.20;;;25.10;74.30;;;;;;5077834;28;20937;-62
2023/08/16 10:03:55;;;;;;;3.07;1.97;;;25.30;73.80;;;;;;5077481;28;21002;-63
2023/08/16 10:06:23;;;;;;;3.27;1.87;;;25.40;73.20;;;;;;5075304;28;20434;-62
2023/08/16 10:08:50;;;;;;;5.07;2.40;;;25.50;72.50;;;;;;5074822;28;20454;-62
2023/08/16 10:11:17;;;;;;;2.60;2.40;;;25.50;72.10;;;;;;5075017;28;20948;-63
2023/08/16 10:13:45;;;;;;;3.37;2.40;;;25.40;71.30;;;;;;5074598;28;20474;-62
2023/08/16 10:16:15;;;;;;;6.27;2.20;;;25.30;71.60;;;;;;5074679;28;20960;-62
2023/08/16 10:18:43;;;;;;;3.13;2.13;;;25.20;71.70;;;;;;5075232;28;20434;-63
2023/08/16 10:21:15;;;;;;;12.13;2.57;;;25.10;71.20;;;;;;5076030;28;20447;-63
2023/08/16 10:23:42;;;;;;;4.50;3.00;;;25.10;71.00;;;;;;5075528;28;20455;-63
2023/08/16 10:26:15;;;;;;;2.60;1.87;;;25.10;71.20;;;;;;5075907;28;20439;-62
2023/08/16 10:28:47;;;;;;;4.50;2.50;;;25.20;71.00;;;;;;5075350;28;20435;-64
2023/08/16 10:31:17;;;;;;;3.83;2.10;;;25.30;71.10;;;;;;5075198;28;20890;-63
2023/08/16 10:33:46;;;;;;;3.70;2.43;;;25.30;71.00;;;;;;5075574;28;20491;-62
2023/08/16 10:36:14;;;;;;;5.10;2.60;;;25.40;70.80;;;;;;5075177;28;20936;-65
2023/08/16 10:38:42;;;;;;;3.70;2.40;;;25.50;70.50;;;;;;5074696;28;20443;-64
2023/08/16 10:41:13;;;;;;;3.47;2.50;;;25.50;70.20;;;;;;5075559;28;20439;-64
2023/08/16 10:43:47;;;;;;;4.77;1.90;;;25.30;70.30;;;;;;5090265;22;20517;-63
2023/08/16 10:46:23;;;;;;;4.67;2.57;;;25.20;71.10;;;;;;5076979;28;20430;-61
2023/08/16 10:48:56;;;;;;;6.53;3.30;;;25.10;71.70;;;;;;5075389;28;20915;-62
2023/08/16 10:51:23;;;;;;;5.80;2.50;;;25.10;72.10;;;;;;5075345;28;20430;-63
2023/08/16 10:53:50;;;;;;;3.80;2.30;;;25.30;72.00;;;;;;5076039;28;20479;-60
2023/08/16 10:56:17;;;;;;;5.40;2.67;;;25.50;71.50;;;;;;5075358;28;20455;-62
2023/08/16 10:58:49;;;;;;;5.67;2.70;;;25.60;71.10;;;;;;5076142;28;20465;-62
2023/08/16 11:01:16;;;;;;;5.90;2.80;;;25.70;71.00;;;;;;5074836;28;20459;-61
2023/08/16 11:03:44;;;;;;;3.70;2.40;;;25.90;70.20;;;;;;5074618;28;20827;-62
2023/08/16 11:06:12;;;;;;;3.00;2.40;;;26.00;69.70;;;;;;5075719;28;20447;-62
2023/08/16 11:08:42;;;;;;;4.10;2.63;;;26.20;69.40;;;;;;5074991;28;20439;-60
2023/08/16 11:11:10;;;;;;;3.17;2.20;;;26.50;68.60;;;;;;5076559;28;20432;-64
2023/08/16 11:13:37;;;;;;;3.90;2.13;;;26.80;68.00;;;;;;5074346;28;20486;-61
2023/08/16 11:16:09;;;;;;;5.87;2.57;;;26.70;67.80;;;;;;5074469;28;20435;-61
2023/08/16 11:18:37;;;;;;;3.87;2.20;;;26.50;68.30;;;;;;5074051;28;20458;-61
2023/08/16 11:21:07;;;;;;;3.07;2.23;;;26.40;68.80;;;;;;5074044;28;20451;-62
2023/08/16 11:23:37;;;;;;;2.50;2.30;;;26.40;68.80;;;;;;5074548;28;20463;-61
2023/08/16 11:26:04;;;;;;;3.30;2.33;;;26.20;69.40;;;;;;5075176;28;20614;-61
2023/08/16 11:28:32;;;;;;;4.23;2.00;;;26.00;70.10;;;;;;5075040;28;20450;-62
2023/08/16 11:31:01;;;;;;;3.03;2.30;;;26.10;70.60;;;;;;5074638;28;20530;-62
2023/08/16 11:33:33;;;;;;;3.30;2.50;;;26.20;70.60;;;;;;5075067;28;20498;-61
2023/08/16 11:36:00;;;;;;;2.60;2.20;;;26.30;70.10;;;;;;5074826;28;20460;-62
2023/08/16 11:38:28;;;;;;;4.53;2.50;;;26.20;70.10;;;;;;5074418;28;20435;-62
2023/08/16 11:40:55;;;;;;;4.50;2.40;;;26.10;70.60;;;;;;5074233;28;20439;-63
2023/08/16 11:43:26;;;;;;;3.30;2.50;;;26.10;71.10;;;;;;5073792;28;20467;-61
2023/08/16 11:45:53;;;;;;;4.67;2.83;;;26.20;70.40;;;;;;5074630;28;20432;-62
2023/08/16 11:48:20;;;;;;;2.30;2.10;;;26.30;69.80;;;;;;5074500;28;20439;-61
2023/08/16 11:50:49;;;;;;;2.50;2.13;;;26.50;69.50;;;;;;5074605;28;20447;-60
2023/08/16 11:53:17;;;;;;;2.90;2.20;;;26.60;69.00;;;;;;5074866;28;20544;-62
2023/08/16 11:55:45;;;;;;;3.17;2.40;;;26.80;68.30;;;;;;5075548;28;20439;-63
2023/08/16 11:58:14;;;;;;;3.27;2.60;;;26.80;67.90;;;;;;5075272;28;20473;-63
2023/08/16 12:00:42;;;;;;;3.03;2.00;;;26.70;67.90;;;;;;5075083;28;20935;-62
2023/08/16 12:03:10;;;;;;;4.80;2.50;;;26.60;68.50;;;;;;5075565;28;20541;-64
2023/08/16 12:05:38;;;;;;;3.10;2.27;;;26.50;68.90;;;;;;5077559;28;20482;-62
2023/08/16 12:08:08;;;;;;;2.60;2.00;;;26.40;69.20;;;;;;5074280;28;20937;-62
2023/08/16 12:10:35;;;;;;;3.47;2.40;;;26.50;69.10;;;;;;5074027;28;20438;-62
2023/08/16 12:13:12;;;;;;;5.07;2.50;;;26.50;69.00;;;;;;5074148;28;20489;-61
2023/08/16 12:15:40;;;;;;;2.93;1.97;;;26.50;69.00;;;;;;5073825;28;20962;-62
2023/08/16 12:18:07;;;;;;;3.50;2.20;;;26.50;68.80;;;;;;5073843;28;20466;-62
2023/08/16 12:20:35;;;;;;;3.00;2.10;;;26.70;68.70;;;;;;5073506;28;20454;-61
2023/08/16 12:23:02;;;;;;;2.10;1.90;;;27.00;67.30;;;;;;5073398;28;20443;-61
2023/08/16 12:25:30;;;;;;;2.67;2.33;;;27.00;66.80;;;;;;5073441;28;20446;-62
2023/08/16 12:27:57;;;;;;;4.93;2.33;;;27.00;67.10;;;;;;5073686;28;20439;-61
2023/08/16 12:30:24;;;;;;;3.07;2.43;;;27.00;66.90;;;;;;5073453;28;20444;-61
2023/08/16 12:32:51;;;;;;;3.10;2.30;;;27.00;66.60;;;;;;5074716;28;20475;-62
2023/08/16 12:35:17;;;;;;;2.37;1.90;;;26.90;66.60;;;;;;5077585;28;20443;-62
2023/08/16 12:37:44;;;;;;;5.67;2.43;;;26.80;67.00;;;;;;5077359;28;20526;-62
2023/08/16 12:40:12;;;;;;;2.50;2.30;;;26.80;67.20;;;;;;5077330;28;20818;-62
2023/08/16 12:42:40;;;;;;;3.03;2.63;;;26.70;67.40;;;;;;5077068;28;20438;-62
2023/08/16 12:45:08;;;;;;;3.50;2.47;;;26.60;67.70;;;;;;5076548;28;20476;-63
2023/08/16 12:47:34;;;;;;;2.63;2.40;;;26.50;68.00;;;;;;5077008;28;20434;-60
2023/08/16 12:50:01;;;;;;;2.47;2.27;;;26.60;68.00;;;;;;5077126;28;20445;-61